Latest Weather Observations for King Island Airport

IDT60801

Issued at 8:05 pm EDT Thursday 27 November 2014 (issued every 30 minutes, with the page automatically refreshed every 10 minutes)

About weather observations | Map of weather stations | Latest weather observations for TAS | Other Formats
Station Details ID: 098017 Name: KING ISLAND AIRPORT Lat: -39.88 Lon: 143.88 Height: 37.0 m
Data from the previous 72 hours. | See also: Recent months at King Island Airport
Date/Time
EDT
Temp
°C
App
Temp
°C
Dew
Point
Rel
Hum
%
Delta-T
°C
Wind Press
QNH
hPa
Press
MSL
hPa
Rain
since 9 am
mm
Dir
 
Spd
km/h
Gust
km/h
Spd
kts
Gust
kts
27/08:00pm 11.9 7.9 6.8 71 2.4 S 17 24 9 13 1025.7 1025.7 0.0
27/07:30pm 12.7 7.1 7.0 68 2.7 SSW 26 33 14 18 1025.5 1025.5 0.0
27/07:00pm 13.3 7.7 7.1 66 3.0 SSW 26 33 14 18 1025.3 1025.3 0.0
27/06:30pm 13.7 7.7 7.0 64 3.3 SSW 28 35 15 19 1025.3 1025.3 0.0
27/06:00pm 13.9 7.9 7.0 63 3.3 SSW 28 33 15 18 1025.5 1025.5 0.0
27/05:30pm 14.1 8.5 7.2 63 3.4 SSW 26 33 14 18 1025.3 1025.3 0.0
27/05:00pm 14.4 8.4 7.2 62 3.5 SSW 28 35 15 19 1025.7 1025.7 0.0
27/04:30pm 14.8 8.5 7.6 62 3.6 SSW 30 41 16 22 1025.9 1025.9 0.0
27/04:00pm 14.9 8.6 7.5 61 3.6 SSW 30 37 16 20 1025.9 1025.9 0.0
27/03:30pm 14.7 8.4 7.5 62 3.6 SSW 30 43 16 23 1025.9 1025.9 0.0
27/03:00pm 15.1 9.3 7.9 62 3.6 SSW 28 37 15 20 1026.2 1026.2 0.0
27/02:30pm 15.1 9.2 7.6 61 3.7 SSW 28 41 15 22 1026.3 1026.3 0.0
27/02:00pm 14.9 9.0 7.5 61 3.6 SW 28 37 15 20 1026.5 1026.5 0.0
27/01:30pm 15.0 9.4 7.1 59 3.9 SSW 26 35 14 19 1026.6 1026.6 0.0
27/01:00pm 14.6 9.1 7.6 63 3.4 SSW 26 35 14 19 1026.6 1026.6 0.0
27/12:30pm 14.5 9.6 6.8 60 3.7 SSW 22 35 12 19 1027.0 1027.0 0.0
27/12:00pm 14.3 9.3 6.4 59 3.8 SSW 22 33 12 18 1027.2 1027.2 0.0
27/11:30am 14.3 9.1 7.1 62 3.5 SSW 24 32 13 17 1027.2 1027.2 0.0
27/11:00am 13.8 8.5 6.9 63 3.3 SSW 24 35 13 19 1027.2 1027.2 0.0
27/10:30am 13.8 8.5 6.7 62 3.4 SSW 24 35 13 19 1027.2 1027.2 0.0
27/10:00am 13.7 9.2 6.8 63 3.3 S 20 35 11 19 1027.2 1027.2 0.0
27/09:30am 13.1 8.4 6.2 63 3.3 SSW 20 30 11 16 1027.2 1027.2 0.0
27/09:00am 12.7 7.2 5.8 63 3.2 SSW 24 32 13 17 1027.1 1027.1 0.0
27/08:30am 13.0 7.9 5.9 62 3.4 SSW 22 33 12 18 1027.0 1027.0 0.0
27/08:00am 12.3 8.2 6.4 67 2.8 S 17 30 9 16 1026.8 1026.8 0.0
27/07:30am 11.9 8.6 6.2 68 2.7 S 13 20 7 11 1026.6 1026.6 0.0
27/07:00am 11.2 7.8 6.1 71 2.4 S 13 24 7 13 1026.4 1026.4 0.0
27/06:30am 10.6 7.6 5.8 72 2.2 SSE 11 15 6 8 1026.1 1026.1 0.0
27/06:00am 10.4 7.3 5.6 72 2.2 S 11 17 6 9 1025.8 1025.8 0.0
27/05:30am 10.8 7.8 6.0 72 2.2 SSE 11 17 6 9 1025.6 1025.6 0.0
27/05:00am 10.7 7.6 5.7 71 2.3 S 11 22 6 12 1025.3 1025.3 0.0
27/04:30am 11.1 7.8 6.3 72 2.3 SSE 13 20 7 11 1025.0 1025.0 0.0
27/04:00am 11.3 8.8 6.4 72 2.3 SSE 9 15 5 8 1024.7 1024.7 0.0
27/03:30am 11.1 8.5 6.3 72 2.3 S 9 13 5 7 1024.6 1024.6 0.0
27/03:00am 11.5 8.6 6.4 71 2.4 S 11 15 6 8 1024.5 1024.5 0.0
27/02:30am 11.2 8.6 6.1 71 2.4 S 9 11 5 6 1024.5 1024.5 0.0
27/02:00am 11.4 8.0 6.1 70 2.5 S 13 17 7 9 1024.7 1024.7 0.0
27/01:30am 11.6 8.6 6.1 69 2.6 S 11 17 6 9 1024.9 1024.9 0.0
27/01:00am 11.5 8.1 5.8 68 2.6 S 13 20 7 11 1025.1 1025.1 0.0
27/12:30am 11.7 8.7 6.2 69 2.6 S 11 15 6 8 1025.1 1025.1 0.0
27/12:00am 11.6 8.2 5.9 68 2.6 S 13 20 7 11 1025.1 1025.1 0.0
 
Date/Time
EDT
Temp
°C
App
Temp
°C
Dew
Point
Rel
Hum
%
Delta-T
°C
Wind Press
QNH
hPa
Press
MSL
hPa
Rain
since 9 am
mm
Dir
 
Spd
km/h
Gust
km/h
Spd
kts
Gust
kts
26/11:30pm 11.6 8.2 5.7 67 2.7 S 13 24 7 13 1025.0 1025.0 0.0
26/11:00pm 11.3 8.2 5.4 67 2.7 S 11 20 6 11 1025.0 1025.0 0.0
26/10:30pm 11.5 7.6 5.4 66 2.8 S 15 26 8 14 1024.9 1024.9 0.0
26/10:00pm 12.1 7.5 5.7 65 3.0 S 19 28 10 15 1024.7 1024.7 0.0
26/09:30pm 11.9 7.1 5.5 65 3.0 SSW 20 30 11 16 1024.5 1024.5 0.0
26/09:00pm 12.1 6.9 5.5 64 3.1 SSW 22 33 12 18 1024.3 1024.3 0.0
26/08:30pm 12.4 6.5 6.0 65 3.0 SSW 26 33 14 18 1024.0 1024.0 0.0
26/08:00pm 12.5 8.0 6.3 66 2.9 SSW 19 28 10 15 1023.9 1023.9 0.0
26/07:30pm 12.8 6.8 5.5 61 3.4 SSW 26 41 14 22 1023.7 1023.7 0.0
26/07:00pm 13.0 6.7 5.7 61 3.4 SSW 28 35 15 19 1023.4 1023.4 0.0
26/06:30pm 13.3 6.9 6.9 65 3.1 SSW 30 37 16 20 1023.1 1023.1 0.0
26/06:00pm 13.7 7.4 7.5 66 3.0 SSW 30 39 16 21 1022.8 1022.8 0.0
26/05:30pm 13.6 7.6 7.2 65 3.1 SSW 28 37 15 20 1022.6 1022.6 0.0
26/05:00pm 14.0 7.6 7.1 63 3.4 SW 30 39 16 21 1022.5 1022.5 0.0
26/04:30pm 14.5 8.1 7.1 61 3.6 SSW 30 39 16 21 1022.4 1022.4 0.0
26/04:00pm 14.8 8.0 6.9 59 3.8 SW 32 44 17 24 1022.3 1022.3 0.0
26/03:30pm 15.4 9.2 6.1 54 4.5 SW 28 39 15 21 1022.3 1022.3 0.0
26/03:00pm 14.7 7.6 5.5 54 4.3 SW 32 43 17 23 1022.1 1022.1 0.0
26/02:30pm 14.9 8.7 6.0 55 4.3 SW 28 41 15 22 1022.0 1022.0 0.0
26/02:00pm 14.7 8.4 7.5 62 3.5 SSW 30 43 16 23 1022.0 1022.0 0.0
26/01:30pm 14.9 8.6 7.5 61 3.7 SSW 30 44 16 24 1021.8 1021.8 0.0
26/01:00pm 15.2 9.0 8.0 62 3.6 SSW 30 46 16 25 1021.8 1021.8 0.0
26/12:30pm 14.9 7.8 6.5 57 4.1 SW 33 44 18 24 1021.6 1021.6 0.0
26/12:00pm 14.7 7.6 6.5 58 4.0 SW 33 46 18 25 1021.6 1021.6 0.0
26/11:30am 14.5 8.0 8.0 65 3.2 SSW 32 41 17 22 1021.3 1021.3 0.0
26/11:00am 14.4 7.9 8.1 66 3.1 SW 32 43 17 23 1021.1 1021.1 0.0
26/10:30am 14.4 8.0 8.4 67 3.0 SW 32 44 17 24 1020.6 1020.6 0.0
26/10:00am 14.2 7.4 7.9 66 3.1 SW 33 43 18 23 1020.5 1020.5 0.0
26/09:30am 14.0 7.6 9.2 73 2.4 SW 33 43 18 23 1020.5 1020.5 0.0
26/09:00am 13.5 8.7 11.6 88 1.0 SW 28 35 15 19 1020.1 1020.1 2.8
26/08:30am 12.8 8.0 11.7 93 0.6 SSW 28 37 15 20 1019.8 1019.8 2.8
26/08:00am 12.7 7.9 11.8 94 0.5 SW 28 39 15 21 1019.4 1019.4 2.8
26/07:39am 12.3 8.6 11.5 95 0.4 SW 22 32 12 17 1019.3 1019.3 2.8
26/07:37am 12.1 8.3 11.3 95 0.4 SW 22 32 12 17 1019.2 1019.2 2.8
26/07:30am 11.9 8.1 11.1 95 0.4 SW 22 32 12 17 1019.2 1019.2 2.8
26/07:23am 11.8 6.4 11.0 95 0.4 SW 30 48 16 26 1019.1 1019.1 2.8
26/07:11am 12.6 7.5 11.8 95 0.4 SSW 30 35 16 19 1018.8 1018.8 2.4
26/07:09am 12.7 7.2 11.9 95 0.4 W 32 43 17 23 1018.7 1018.7 2.4
26/07:00am 12.7 7.6 11.9 95 0.4 W 30 41 16 22 1018.6 1018.6 2.4
26/06:43am 12.9 8.2 12.1 95 0.4 W 28 39 15 21 1018.4 1018.4 2.4
26/06:30am 12.8 8.1 11.9 94 0.5 W 28 39 15 21 1018.3 1018.3 2.4
26/06:06am 12.8 8.0 11.5 92 0.7 W 28 46 15 25 1018.0 1018.0 0.6
26/06:01am 13.0 8.2 11.7 92 0.7 W 28 37 15 20 1018.0 1018.0 0.2
26/06:00am 13.0 8.2 11.7 92 0.7 W 28 37 15 20 1018.0 1018.0 0.2
26/05:58am 13.1 8.3 11.7 91 0.7 W 28 37 15 20 1018.0 1018.0 0.2
26/05:30am 12.8 6.9 11.2 90 0.8 W 33 43 18 23 1017.9 1017.9 0.2
26/05:00am 13.0 7.3 11.1 88 1.0 W 32 43 17 23 1017.7 1017.7 0.2
26/04:30am 13.0 7.7 11.1 88 1.0 W 30 41 16 22 1017.6 1017.6 0.2
26/04:19am 13.0 8.0 10.9 87 1.1 W 28 46 15 25 1017.6 1017.6 0.2
26/04:00am 13.0 7.1 11.1 88 1.0 W 33 44 18 24 1017.7 1017.7 0.2
26/03:30am 12.6 6.9 11.0 90 0.8 WNW 32 41 17 22 1017.7 1017.7 0.2
26/03:06am 12.3 6.5 10.7 90 0.8 W 32 41 17 22 1017.9 1017.9 0.2
26/03:00am 12.3 6.4 10.5 89 0.9 W 32 41 17 22 1018.0 1018.0 0.2
26/02:49am 13.0 6.5 10.4 84 1.4 W 35 56 19 30 1018.1 1018.1 0.2
26/02:46am 13.2 7.0 10.0 81 1.7 W 33 56 18 30 1018.0 1018.0 0.2
26/02:30am 13.1 7.7 9.5 79 1.8 W 28 39 15 21 1018.0 1018.0 0.2
26/02:00am 13.4 7.6 9.3 76 2.1 W 30 41 16 22 1018.1 1018.1 0.2
26/01:30am 13.4 7.0 9.3 76 2.1 W 33 41 18 22 1018.4 1018.4 0.2
26/01:00am 13.2 7.6 8.9 75 2.2 W 28 37 15 20 1018.8 1018.8 0.2
26/12:30am 13.4 8.3 9.3 76 2.1 W 26 35 14 19 1018.9 1018.9 0.2
26/12:00am 13.4 7.4 8.7 73 2.4 W 30 41 16 22 1019.0 1019.0 0.2
 
Date/Time
EDT
Temp
°C
App
Temp
°C
Dew
Point
Rel
Hum
%
Delta-T
°C
Wind Press
QNH
hPa
Press
MSL
hPa
Rain
since 9 am
mm
Dir
 
Spd
km/h
Gust
km/h
Spd
kts
Gust
kts
25/11:30pm 13.1 7.4 8.4 73 2.3 W 28 39 15 21 1019.2 1019.2 0.2
25/11:00pm 13.0 7.3 8.3 73 2.3 W 28 39 15 21 1019.4 1019.4 0.2
25/10:30pm 13.1 7.5 8.6 74 2.3 W 28 41 15 22 1019.6 1019.6 0.2
25/10:00pm 13.0 7.6 8.1 72 2.4 W 26 35 14 19 1019.6 1019.6 0.2
25/09:30pm 13.0 7.9 7.7 70 2.6 W 24 33 13 18 1019.5 1019.5 0.2
25/09:00pm 12.9 6.9 6.9 67 2.9 W 28 44 15 24 1019.5 1019.5 0.2
25/08:30pm 12.9 7.1 7.8 71 2.5 W 28 39 15 21 1019.2 1019.2 0.2
25/08:00pm 12.9 7.1 7.8 71 2.5 W 28 39 15 21 1019.2 1019.2 0.2
25/07:30pm 13.3 6.6 7.3 67 2.9 W 32 46 17 25 1018.9 1018.9 0.2
25/07:00pm 13.7 6.9 7.0 64 3.2 W 32 46 17 25 1018.6 1018.6 0.2
25/06:30pm 13.8 6.3 6.4 61 3.6 W 35 48 19 26 1018.2 1018.2 0.2
25/06:00pm 13.9 6.8 6.5 61 3.6 W 33 50 18 27 1018.0 1018.0 0.2
25/05:30pm 14.6 6.5 6.9 60 3.8 W 39 57 21 31 1017.9 1017.9 0.2
25/05:22pm 14.7 7.0 7.0 60 3.8 WSW 37 57 20 31 1017.9 1017.9 0.2
25/05:00pm 14.7 6.7 7.3 61 3.6 W 39 52 21 28 1017.9 1017.9 0.2
25/04:30pm 14.9 7.6 7.0 59 3.9 W 35 44 19 24 1017.8 1017.8 0.2
25/04:12pm 14.9 7.4 7.9 63 3.5 W 37 56 20 30 1017.8 1017.8 0.2
25/04:00pm 15.0 7.5 8.0 63 3.5 W 37 52 20 28 1017.8 1017.8 0.2
25/03:50pm 15.2 7.2 7.5 60 3.8 W 39 57 21 31 1017.9 1017.9 0.2
25/03:30pm 14.6 7.6 8.5 67 3.1 W 35 48 19 26 1017.8 1017.8 0.2
25/03:00pm 15.5 7.4 8.7 64 3.5 W 41 56 22 30 1017.6 1017.6 0.2
25/02:30pm 15.7 8.3 8.2 61 3.8 W 37 56 20 30 1017.5 1017.5 0.2
25/02:18pm 15.9 8.5 8.2 60 3.9 W 37 56 20 30 1017.5 1017.5 0.2
25/02:00pm 15.7 6.8 6.7 55 4.4 W 43 56 23 30 1017.3 1017.3 0.2
25/01:30pm 15.8 8.6 7.6 58 4.1 W 35 46 19 25 1017.2 1017.2 0.2
25/01:12pm 16.2 8.9 7.2 55 4.5 W 35 54 19 29 1017.3 1017.3 0.2
25/01:00pm 16.3 9.1 7.5 56 4.4 W 35 52 19 28 1017.2 1017.2 0.2
25/12:30pm 15.6 8.5 9.5 67 3.2 W 37 56 20 30 1017.2 1017.2 0.2
25/12:29pm 15.6 8.5 9.5 67 3.2 W 37 56 20 30 1017.2 1017.2 0.2
25/12:00pm 13.6 6.9 9.8 78 2.0 W 35 46 19 25 1017.2 1017.2 0.2
25/11:48am 13.5 6.4 9.6 77 2.0 WSW 37 50 20 27 1017.1 1017.1 0.2
25/11:30am 14.2 7.4 9.4 73 2.5 W 35 52 19 28 1016.9 1016.9 0.2
25/11:00am 13.9 7.1 9.3 74 2.3 W 35 59 19 32 1016.7 1016.7 0.2
25/10:53am 14.2 7.4 9.4 73 2.5 W 35 54 19 29 1016.6 1016.6 0.2
25/10:30am 14.1 7.7 9.3 73 2.5 W 33 48 18 26 1016.3 1016.3 0.2
25/10:13am 13.7 8.6 10.7 82 1.6 WSW 28 37 15 20 1016.1 1016.1 0.2
25/10:00am 12.2 5.4 9.4 83 1.4 W 35 50 19 27 1016.1 1016.1 0.2
25/09:56am 12.4 5.6 9.2 81 1.6 W 35 50 19 27 1016.1 1016.1 0.2
25/09:52am 13.3 7.0 9.0 75 2.2 W 32 50 17 27 1016.0 1016.0 0.0
25/09:30am 14.1 7.2 8.7 70 2.7 WSW 35 46 19 25 1015.7 1015.7 0.0
25/09:00am 14.1 7.3 9.3 73 2.5 WSW 35 48 19 26 1015.3 1015.3 3.6
25/08:34am 12.9 5.4 8.0 72 2.4 WSW 37 56 20 30 1014.9 1014.9 3.6
25/08:30am 12.5 4.6 8.0 74 2.2 WSW 39 52 21 28 1015.0 1015.0 3.6
25/08:23am 13.7 7.4 9.0 73 2.4 WSW 32 50 17 27 1014.7 1014.7 3.6
25/08:00am 13.6 6.8 7.8 68 2.9 WSW 33 44 18 24 1014.5 1014.5 3.6
25/07:46am 13.4 7.1 7.4 67 2.9 WSW 30 48 16 26 1014.2 1014.2 3.6
25/07:30am 13.1 6.3 7.8 70 2.6 WSW 33 46 18 25 1014.0 1014.0 3.6
25/07:00am 12.5 6.2 8.8 78 1.9 WSW 32 43 17 23 1013.6 1013.5 3.6
25/06:44am 12.6 6.3 9.1 79 1.8 WSW 32 52 17 28 1013.4 1013.3 3.6
25/06:30am 12.1 5.1 8.4 78 1.8 WSW 35 46 19 25 1013.3 1013.2 3.6
25/06:00am 12.2 6.3 9.2 82 1.5 WSW 30 48 16 26 1012.7 1012.6 3.6
25/05:32am 10.7 3.2 8.1 84 1.3 WSW 37 56 20 30 1012.5 1012.4 3.6
25/05:30am 11.0 3.2 8.4 84 1.3 WSW 39 56 21 30 1012.4 1012.3 3.6
25/05:22am 12.2 5.3 8.9 80 1.7 WSW 35 56 19 30 1012.3 1012.2 3.6
25/05:00am 11.9 5.8 9.6 86 1.2 WSW 32 46 17 25 1012.0 1011.9 3.6
25/04:30am 11.8 6.1 9.7 87 1.1 WSW 30 37 16 20 1011.9 1011.8 3.2
25/04:00am 12.3 6.1 9.3 82 1.5 W 32 41 17 22 1011.6 1011.5 2.8
25/03:40am 12.6 6.7 9.2 80 1.7 WSW 30 48 16 26 1011.6 1011.5 2.8
25/03:30am 12.4 6.5 9.2 81 1.6 W 30 43 16 23 1011.5 1011.4 2.8
25/03:00am 11.7 5.8 9.1 84 1.3 W 30 39 16 21 1011.5 1011.4 2.8
25/02:30am 12.6 6.0 8.7 77 1.9 W 33 48 18 26 1011.3 1011.2 2.8
25/02:00am 11.8 5.8 8.5 80 1.6 W 30 41 16 22 1011.3 1011.2 2.8
25/01:30am 12.1 6.5 8.8 80 1.6 W 28 41 15 22 1011.2 1011.1 2.8
25/01:00am 10.8 4.0 6.9 77 1.9 W 32 50 17 27 1011.3 1011.2 2.8
25/12:58am 11.5 4.9 7.8 78 1.8 W 32 50 17 27 1011.5 1011.4 2.8
25/12:30am 12.7 6.3 8.6 76 2.0 W 32 46 17 25 1011.2 1011.1 2.0
25/12:20am 12.9 6.2 8.2 73 2.3 W 33 52 18 28 1011.1 1011.0 2.0
25/12:00am 13.1 7.0 8.2 72 2.4 W 30 44 16 24 1011.1 1011.0 2.0
 
Date/Time
EDT
Temp
°C
App
Temp
°C
Dew
Point
Rel
Hum
%
Delta-T
°C
Wind Press
QNH
hPa
Press
MSL
hPa
Rain
since 9 am
mm
Dir
 
Spd
km/h
Gust
km/h
Spd
kts
Gust
kts
24/11:30pm 12.9 6.7 7.8 71 2.5 W 30 43 16 23 1011.1 1011.0 2.0
24/11:00pm 12.7 7.4 8.6 76 2.0 W 26 37 14 20 1011.2 1011.1 2.0
24/10:31pm 12.7 6.0 7.4 70 2.6 W 32 52 17 28 1011.4 1011.3 2.0
24/10:30pm 13.0 6.3 7.5 69 2.7 W 32 43 17 23 1011.4 1011.3 2.0
24/10:00pm 12.6 6.0 8.5 76 2.0 WSW 33 54 18 29 1011.1 1011.0 2.0
24/09:59pm 12.6 6.2 8.5 76 2.0 WSW 32 54 17 29 1011.1 1011.0 2.0
24/09:30pm 13.2 7.1 6.8 65 3.1 W 28 37 15 20 1010.7 1010.6 1.8
24/09:00pm 13.2 6.8 6.8 65 3.1 W 30 41 16 22 1010.4 1010.3 1.8
24/08:30pm 13.3 7.4 7.5 68 2.8 W 28 43 15 23 1010.1 1010.0 1.8

Other Formats:

Comma delimited format used in spreadsheet applications
http://www.bom.gov.au/fwo/IDT60801/IDT60801.94850.axf

JavaScript Object Notation format (JSON) in row-major order
http://www.bom.gov.au/fwo/IDT60801/IDT60801.94850.json